createdAt,value
2022-07-28T00:02:17.699Z,5.73
2022-07-28T00:07:22.930Z,6.03
2022-07-28T00:12:28.592Z,6.27
2022-07-28T00:17:36.223Z,6.30
2022-07-28T00:22:44.840Z,6.07
2022-07-28T00:27:50.050Z,5.70
2022-07-28T00:32:57.624Z,5.60
2022-07-28T00:38:03.482Z,5.03
2022-07-28T00:43:10.775Z,5.23
2022-07-28T00:48:20.213Z,5.27
2022-07-28T00:53:25.921Z,4.90
2022-07-28T00:58:31.453Z,5.07
2022-07-28T01:03:42.644Z,5.77
2022-07-28T01:09:08.837Z,5.00
2022-07-28T01:14:20.326Z,5.33
2022-07-28T01:19:46.410Z,5.33
2022-07-28T01:24:59.380Z,4.60
2022-07-28T01:30:11.867Z,4.33
2022-07-28T01:35:24.235Z,4.50
2022-07-28T01:40:34.025Z,5.73
2022-07-28T01:45:41.429Z,5.37
2022-07-28T01:50:51.708Z,5.37
2022-07-28T01:55:57.886Z,5.43
2022-07-28T02:01:05.128Z,5.20
2022-07-28T02:06:17.302Z,5.17
2022-07-28T02:11:34.704Z,4.63
2022-07-28T02:16:43.083Z,5.30
2022-07-28T02:21:52.759Z,4.83
2022-07-28T02:27:02.281Z,4.50
2022-07-28T02:32:26.902Z,5.27
2022-07-28T02:37:40.476Z,5.47
2022-07-28T02:42:49.828Z,4.30
2022-07-28T02:47:59.957Z,4.40
2022-07-28T02:53:15.044Z,4.43
2022-07-28T02:58:24.131Z,5.33
2022-07-28T03:03:30.545Z,4.33
2022-07-28T03:08:38.479Z,4.97
2022-07-28T03:13:44.393Z,4.27
2022-07-28T03:18:49.576Z,5.00
2022-07-28T03:23:58.756Z,4.40
2022-07-28T03:29:05.866Z,4.30
2022-07-28T03:34:12.295Z,5.40
2022-07-28T03:39:20.848Z,4.37
2022-07-28T03:44:28.786Z,4.80
2022-07-28T03:49:34.129Z,5.13
2022-07-28T03:54:41.668Z,9.87
2022-07-28T03:59:46.689Z,8.33
2022-07-28T04:04:53.530Z,6.00
2022-07-28T04:10:01.772Z,5.50
2022-07-28T04:15:09.532Z,4.97
2022-07-28T04:20:15.515Z,4.73
2022-07-28T04:25:25.871Z,5.20
2022-07-28T04:30:30.975Z,4.67
2022-07-28T04:35:37.339Z,4.43
2022-07-28T04:40:45.011Z,4.57
2022-07-28T04:45:53.408Z,4.43
2022-07-28T04:50:59.566Z,4.73
2022-07-28T04:56:07.967Z,3.80
2022-07-28T05:01:13.138Z,3.63
2022-07-28T05:06:18.790Z,3.00
2022-07-28T05:11:26.470Z,3.50
2022-07-28T05:16:31.460Z,3.10
2022-07-28T05:21:37.952Z,3.07
2022-07-28T05:26:45.854Z,2.70
2022-07-28T05:31:52.223Z,3.70
2022-07-28T05:36:57.301Z,3.27
2022-07-28T05:42:04.900Z,3.30
2022-07-28T05:47:09.972Z,2.27
2022-07-28T05:52:14.902Z,2.40
2022-07-28T05:57:23.669Z,3.00
2022-07-28T06:02:28.823Z,2.87
2022-07-28T06:07:43.961Z,1.90
2022-07-28T06:12:53.240Z,2.10
2022-07-28T06:17:58.629Z,2.13
2022-07-28T06:23:03.681Z,2.30
2022-07-28T06:28:11.404Z,2.60
2022-07-28T06:33:17.418Z,1.60
2022-07-28T06:38:23.322Z,1.47
2022-07-28T06:43:34.158Z,1.40
2022-07-28T06:48:43.501Z,1.73
2022-07-28T06:53:48.998Z,1.40
2022-07-28T06:59:03.201Z,1.73
2022-07-28T07:04:10.378Z,1.50
2022-07-28T07:09:19.462Z,1.60
2022-07-28T07:14:29.331Z,1.27
2022-07-28T07:19:34.567Z,1.00
2022-07-28T07:24:39.756Z,1.43
2022-07-28T07:29:47.232Z,1.40
2022-07-28T07:34:52.137Z,1.30
2022-07-28T07:39:57.378Z,1.30
2022-07-28T07:45:05.051Z,1.07
2022-07-28T07:50:13.406Z,1.30
2022-07-28T07:55:19.284Z,1.30
2022-07-28T08:00:28.523Z,1.30
2022-07-28T08:05:35.418Z,1.30
2022-07-28T08:10:42.404Z,1.43
2022-07-28T08:15:50.470Z,1.20
2022-07-28T08:21:04.535Z,1.30
2022-07-28T08:26:10.094Z,0.90
2022-07-28T08:31:22.095Z,1.40
2022-07-28T08:36:27.583Z,1.53
2022-07-28T08:41:40.100Z,1.50
2022-07-28T08:46:50.735Z,1.20
2022-07-28T08:51:58.755Z,1.50
2022-07-28T08:57:06.129Z,1.40
2022-07-28T09:02:16.343Z,1.00
2022-07-28T09:07:22.139Z,0.90
2022-07-28T09:12:28.638Z,0.90
2022-07-28T09:17:38.078Z,0.93
2022-07-28T09:22:59.416Z,1.10
2022-07-28T09:28:28.230Z,1.00
2022-07-28T09:33:41.246Z,0.90
2022-07-28T09:38:49.924Z,1.20
2022-07-28T09:43:56.161Z,1.10
2022-07-28T09:49:04.741Z,0.90
2022-07-28T09:54:13.828Z,1.10
2022-07-28T09:59:19.487Z,0.77
2022-07-28T10:04:38.478Z,2.53
2022-07-28T10:09:44.506Z,1.00
2022-07-28T10:14:50.573Z,1.67
2022-07-28T10:19:59.101Z,1.17
2022-07-28T10:25:05.269Z,1.38
2022-07-28T10:30:12.124Z,1.07
2022-07-28T10:35:20.835Z,1.30
2022-07-28T10:40:30.335Z,1.40
2022-07-28T10:46:03.294Z,1.20
2022-07-28T10:51:05.966Z,1.33
2022-07-28T10:56:18.796Z,0.82
2022-07-28T11:01:49.020Z,1.13
2022-07-28T11:07:13.529Z,1.02
2022-07-28T11:12:19.166Z,1.17
2022-07-28T11:17:33.091Z,0.90
2022-07-28T11:22:41.795Z,1.33
2022-07-28T11:28:05.311Z,1.33
2022-07-28T11:33:11.184Z,1.23
2022-07-28T11:38:18.871Z,1.13
2022-07-28T11:43:42.443Z,1.30
2022-07-28T11:48:50.121Z,1.00
2022-07-28T11:53:59.191Z,1.10
2022-07-28T11:59:06.873Z,1.20
2022-07-28T12:04:16.038Z,1.00
2022-07-28T12:09:41.287Z,1.13
2022-07-28T12:14:47.490Z,0.95
2022-07-28T12:19:59.952Z,1.63
2022-07-28T12:25:13.951Z,0.80
2022-07-28T12:30:25.875Z,1.20
2022-07-28T12:35:31.042Z,1.10
2022-07-28T12:40:40.107Z,1.20
2022-07-28T12:45:48.540Z,1.25
2022-07-28T12:50:53.782Z,1.27
2022-07-28T12:56:06.146Z,1.23
2022-07-28T13:01:13.313Z,0.85
2022-07-28T13:06:18.396Z,1.45
2022-07-28T13:11:46.111Z,1.10
2022-07-28T13:17:03.592Z,0.88
2022-07-28T13:22:12.314Z,1.15
2022-07-28T13:27:20.382Z,1.30
2022-07-28T13:32:25.609Z,1.40
2022-07-28T13:37:30.806Z,1.08
2022-07-28T13:42:38.594Z,1.13
2022-07-28T13:47:43.436Z,1.95
2022-07-28T13:52:48.750Z,1.42
2022-07-28T13:57:56.677Z,1.20
2022-07-28T14:03:01.855Z,1.25
2022-07-28T14:08:07.680Z,1.08
2022-07-28T14:13:17.060Z,1.35
2022-07-28T14:18:24.982Z,1.02
2022-07-28T14:23:31.759Z,1.15
2022-07-28T14:28:39.472Z,1.50
2022-07-28T14:33:48.366Z,1.40
2022-07-28T14:38:56.607Z,1.63
2022-07-28T14:44:04.128Z,1.50
2022-07-28T14:49:09.144Z,1.40
2022-07-28T14:54:14.824Z,1.75
2022-07-28T14:59:22.933Z,1.30
2022-07-28T15:04:28.605Z,1.25
2022-07-28T15:09:36.392Z,1.08
2022-07-28T15:14:47.610Z,1.30
2022-07-28T15:19:52.589Z,1.83
2022-07-28T15:25:01.031Z,1.27
2022-07-28T15:30:09.799Z,1.35
2022-07-28T15:35:18.284Z,1.10
2022-07-28T15:40:23.515Z,1.25
2022-07-28T15:45:32.664Z,1.35
2022-07-28T15:50:38.188Z,1.35
2022-07-28T15:55:48.961Z,1.25
2022-07-28T16:01:01.103Z,1.02
2022-07-28T16:06:07.459Z,1.30
2022-07-28T16:11:13.389Z,1.40
2022-07-28T16:16:21.443Z,1.48
2022-07-28T16:21:26.525Z,1.35
2022-07-28T16:26:31.800Z,1.27
2022-07-28T16:31:44.824Z,1.75
2022-07-28T16:36:50.338Z,1.25
2022-07-28T16:41:55.669Z,1.20
2022-07-28T16:47:05.237Z,1.52
2022-07-28T16:52:10.347Z,1.25
2022-07-28T16:57:15.533Z,2.20
2022-07-28T17:02:23.313Z,1.52
2022-07-28T17:07:28.307Z,1.40
2022-07-28T17:12:33.321Z,1.50
2022-07-28T17:17:41.006Z,1.60
2022-07-28T17:22:49.205Z,1.70
2022-07-28T17:27:54.106Z,1.50
2022-07-28T17:33:07.887Z,1.42
2022-07-28T17:38:15.926Z,1.60
2022-07-28T17:43:21.236Z,1.55
2022-07-28T17:48:28.713Z,1.10
2022-07-28T17:53:39.104Z,1.40
2022-07-28T17:58:44.817Z,1.73
2022-07-28T18:03:59.226Z,1.88
2022-07-28T18:09:08.097Z,1.50
2022-07-28T18:14:17.930Z,1.80
2022-07-28T18:19:25.776Z,1.45
2022-07-28T18:24:32.008Z,1.70
2022-07-28T18:29:38.359Z,1.50
2022-07-28T18:34:46.387Z,1.48
2022-07-28T18:39:51.478Z,1.95
2022-07-28T18:44:56.412Z,1.63
2022-07-28T18:50:04.007Z,1.80
2022-07-28T18:55:09.891Z,1.65
2022-07-28T19:00:16.404Z,1.73
2022-07-28T19:05:24.085Z,1.83
2022-07-28T19:10:29.332Z,2.00
2022-07-28T19:15:35.525Z,1.60
2022-07-28T19:20:43.518Z,1.67
2022-07-28T19:25:48.599Z,1.60
2022-07-28T19:30:53.706Z,1.73
2022-07-28T19:36:01.979Z,1.67
2022-07-28T19:41:09.392Z,1.57
2022-07-28T19:46:14.566Z,1.80
2022-07-28T19:51:22.116Z,1.70
2022-07-28T19:56:31.211Z,2.30
2022-07-28T20:01:44.171Z,1.90
2022-07-28T20:06:55.631Z,1.40
2022-07-28T20:12:00.848Z,1.67
2022-07-28T20:17:06.011Z,1.50
2022-07-28T20:22:13.642Z,1.50
2022-07-28T20:27:18.550Z,1.40
2022-07-28T20:32:23.501Z,1.30
2022-07-28T20:37:36.818Z,1.70
2022-07-28T20:42:43.822Z,1.50
2022-07-28T20:47:48.667Z,1.47
2022-07-28T20:52:56.206Z,2.27
2022-07-28T20:58:01.071Z,1.70
2022-07-28T21:03:08.147Z,1.90
2022-07-28T21:08:16.339Z,1.60
2022-07-28T21:13:24.080Z,1.53
2022-07-28T21:18:31.923Z,1.63
2022-07-28T21:23:40.663Z,1.50
2022-07-28T21:28:58.066Z,1.43
2022-07-28T21:34:02.949Z,1.53
2022-07-28T21:39:11.466Z,1.70
2022-07-28T21:44:16.511Z,1.60
2022-07-28T21:49:21.756Z,1.93
2022-07-28T21:54:30.829Z,1.50
2022-07-28T21:59:35.762Z,1.50
2022-07-28T22:04:41.651Z,1.40
2022-07-28T22:09:49.367Z,1.83
2022-07-28T22:14:54.195Z,1.80
2022-07-28T22:19:59.218Z,1.67
2022-07-28T22:25:07.265Z,1.77
2022-07-28T22:30:13.041Z,1.97
2022-07-28T22:35:19.401Z,1.90
2022-07-28T22:40:27.184Z,2.20
2022-07-28T22:45:50.122Z,2.07
2022-07-28T22:50:56.079Z,1.70
2022-07-28T22:56:03.696Z,1.97
2022-07-28T23:01:11.718Z,2.10
2022-07-28T23:06:17.389Z,2.13
2022-07-28T23:11:24.913Z,2.00
2022-07-28T23:16:29.952Z,2.30
2022-07-28T23:21:34.859Z,2.27
2022-07-28T23:26:43.832Z,2.00
2022-07-28T23:31:49.672Z,2.17
2022-07-28T23:36:54.667Z,2.03
2022-07-28T23:42:02.297Z,1.60
2022-07-28T23:47:09.301Z,1.83
2022-07-28T23:52:14.228Z,2.00
2022-07-28T23:57:21.848Z,1.80
